Terminal Aerodrome Forecast
Issued by NWS Pendleton, OR

Home | Current Version | Previous Version | Text Only | Print | Product List | Glossary On
Versions: 1 2 3 4 5 6 7 8 9 10 11 12 13 14 15 16 17 18 19
000
FTUS46 KPDT 220500
TAFPDT
TAF
KPDT 220528Z 2206/2306 14006KT P6SM BKN120
     FM221000 15008KT P6SM OVC100
     FM221700 18010KT P6SM OVC080
     FM230100 18014KT P6SM VCSH OVC060=

USA.gov is the U.S. government's official web portal to all federal, state and local government web resources and services.